sensor_id;sensor_type;location;lat;lon;timestamp;temperature;humidity
65122;HTU21D;51701;45.036;38.924;2022-07-22T00:00:14;17.48;83.97
65122;HTU21D;51701;45.036;38.924;2022-07-22T00:02:41;17.44;85.32
65122;HTU21D;51701;45.036;38.924;2022-07-22T00:05:07;0.00;85.58
65122;HTU21D;51701;45.036;38.924;2022-07-22T00:07:33;17.37;84.16
65122;HTU21D;51701;45.036;38.924;2022-07-22T00:09:59;17.32;84.93
65122;HTU21D;51701;45.036;38.924;2022-07-22T00:12:25;17.23;85.13
65122;HTU21D;51701;45.036;38.924;2022-07-22T00:14:50;17.22;87.25
65122;HTU21D;51701;45.036;38.924;2022-07-22T00:17:16;17.22;84.46
65122;HTU21D;51701;45.036;38.924;2022-07-22T00:19:42;17.18;84.31
65122;HTU21D;51701;45.036;38.924;2022-07-22T00:22:08;17.14;86.94
65122;HTU21D;51701;45.036;38.924;2022-07-22T00:24:34;17.20;85.06
65122;HTU21D;51701;45.036;38.924;2022-07-22T00:26:59;17.18;84.04
65122;HTU21D;51701;45.036;38.924;2022-07-22T00:29:25;17.11;84.64
65122;HTU21D;51701;45.036;38.924;2022-07-22T00:31:51;0.00;86.35
65122;HTU21D;51701;45.036;38.924;2022-07-22T00:34:17;17.19;84.55
65122;HTU21D;51701;45.036;38.924;2022-07-22T00:36:42;17.11;85.07
65122;HTU21D;51701;45.036;38.924;2022-07-22T00:39:08;0.00;84.10
65122;HTU21D;51701;45.036;38.924;2022-07-22T00:41:34;17.14;84.88
65122;HTU21D;51701;45.036;38.924;2022-07-22T00:46:29;17.08;85.53
65122;HTU21D;51701;45.036;38.924;2022-07-22T00:48:55;17.11;86.03
65122;HTU21D;51701;45.036;38.924;2022-07-22T00:51:21;17.09;84.23
65122;HTU21D;51701;45.036;38.924;2022-07-22T00:53:47;16.99;84.35
65122;HTU21D;51701;45.036;38.924;2022-07-22T00:56:13;16.94;86.33
65122;HTU21D;51701;45.036;38.924;2022-07-22T00:58:39;17.00;85.68
65122;HTU21D;51701;45.036;38.924;2022-07-22T01:01:05;16.92;84.37
65122;HTU21D;51701;45.036;38.924;2022-07-22T01:03:31;16.85;83.95
65122;HTU21D;51701;45.036;38.924;2022-07-22T01:05:57;0.00;87.07
65122;HTU21D;51701;45.036;38.924;2022-07-22T01:08:23;0.00;84.26
65122;HTU21D;51701;45.036;38.924;2022-07-22T01:10:49;16.81;84.03
65122;HTU21D;51701;45.036;38.924;2022-07-22T01:13:15;0.00;87.11
65122;HTU21D;51701;45.036;38.924;2022-07-22T01:15:40;16.90;85.38
65122;HTU21D;51701;45.036;38.924;2022-07-22T01:18:06;16.90;84.26
65122;HTU21D;51701;45.036;38.924;2022-07-22T01:20:32;16.85;84.14
65122;HTU21D;51701;45.036;38.924;2022-07-22T01:22:59;16.92;88.39
65122;HTU21D;51701;45.036;38.924;2022-07-22T01:25:24;0.00;85.59
65122;HTU21D;51701;45.036;38.924;2022-07-22T01:27:50;16.94;85.02
65122;HTU21D;51701;45.036;38.924;2022-07-22T01:30:17;16.89;87.27
65122;HTU21D;51701;45.036;38.924;2022-07-22T01:32:42;0.00;85.64
65122;HTU21D;51701;45.036;38.924;2022-07-22T01:35:08;16.91;85.70
65122;HTU21D;51701;45.036;38.924;2022-07-22T01:37:34;16.86;85.22
65122;HTU21D;51701;45.036;38.924;2022-07-22T01:40:00;16.90;88.81
65122;HTU21D;51701;45.036;38.924;2022-07-22T01:42:26;16.88;86.10
65122;HTU21D;51701;45.036;38.924;2022-07-22T01:44:52;16.81;86.62
65122;HTU21D;51701;45.036;38.924;2022-07-22T01:47:18;16.79;90.09
65122;HTU21D;51701;45.036;38.924;2022-07-22T01:49:44;16.84;86.37
65122;HTU21D;51701;45.036;38.924;2022-07-22T01:52:10;16.79;85.75
65122;HTU21D;51701;45.036;38.924;2022-07-22T01:54:37;16.79;87.53
65122;HTU21D;51701;45.036;38.924;2022-07-22T01:57:03;16.90;87.54
65122;HTU21D;51701;45.036;38.924;2022-07-22T01:59:29;16.89;86.15
65122;HTU21D;51701;45.036;38.924;2022-07-22T02:01:54;16.82;85.66
65122;HTU21D;51701;45.036;38.924;2022-07-22T02:04:20;16.85;90.12
65122;HTU21D;51701;45.036;38.924;2022-07-22T02:06:46;16.90;86.89
65122;HTU21D;51701;45.036;38.924;2022-07-22T02:09:12;16.91;86.12
65122;HTU21D;51701;45.036;38.924;2022-07-22T02:11:44;16.92;85.98
65122;HTU21D;51701;45.036;38.924;2022-07-22T02:14:12;17.09;88.73
65122;HTU21D;51701;45.036;38.924;2022-07-22T02:16:38;17.16;86.12
65122;HTU21D;51701;45.036;38.924;2022-07-22T02:19:04;17.23;85.48
65122;HTU21D;51701;45.036;38.924;2022-07-22T02:21:31;0.00;89.50
65122;HTU21D;51701;45.036;38.924;2022-07-22T02:23:58;0.00;87.33
65122;HTU21D;51701;45.036;38.924;2022-07-22T02:26:24;17.65;86.61
65122;HTU21D;51701;45.036;38.924;2022-07-22T02:28:49;17.87;85.66
65122;HTU21D;51701;45.036;38.924;2022-07-22T02:31:15;0.00;86.95
65122;HTU21D;51701;45.036;38.924;2022-07-22T02:33:41;18.26;84.64
65122;HTU21D;51701;45.036;38.924;2022-07-22T02:36:08;18.59;83.61
65122;HTU21D;51701;45.036;38.924;2022-07-22T02:38:35;18.89;83.00
65122;HTU21D;51701;45.036;38.924;2022-07-22T02:41:01;0.00;82.18
65122;HTU21D;51701;45.036;38.924;2022-07-22T02:43:27;19.47;81.36
65122;HTU21D;51701;45.036;38.924;2022-07-22T02:45:53;19.90;80.14
65122;HTU21D;51701;45.036;38.924;2022-07-22T02:48:19;20.07;76.77
65122;HTU21D;51701;45.036;38.924;2022-07-22T02:50:46;0.00;78.30
65122;HTU21D;51701;45.036;38.924;2022-07-22T02:53:15;20.60;76.12
65122;HTU21D;51701;45.036;38.924;2022-07-22T02:55:41;20.75;72.72
65122;HTU21D;51701;45.036;38.924;2022-07-22T02:58:08;0.00;74.82
65122;HTU21D;51701;45.036;38.924;2022-07-22T03:00:35;21.01;72.82
65122;HTU21D;51701;45.036;38.924;2022-07-22T03:03:01;21.11;71.63
65122;HTU21D;51701;45.036;38.924;2022-07-22T03:05:27;21.04;72.76
65122;HTU21D;51701;45.036;38.924;2022-07-22T03:08:04;21.43;73.00
65122;HTU21D;51701;45.036;38.924;2022-07-22T03:10:30;21.82;68.49
65122;HTU21D;51701;45.036;38.924;2022-07-22T03:12:56;21.79;70.38
65122;HTU21D;51701;45.036;38.924;2022-07-22T03:15:22;22.02;68.12
65122;HTU21D;51701;45.036;38.924;2022-07-22T03:17:47;0.00;66.53
65122;HTU21D;51701;45.036;38.924;2022-07-22T03:20:13;22.34;67.76
65122;HTU21D;51701;45.036;38.924;2022-07-22T03:22:39;22.76;68.44
65122;HTU21D;51701;45.036;38.924;2022-07-22T03:25:05;23.17;63.27
65122;HTU21D;51701;45.036;38.924;2022-07-22T03:27:31;22.98;66.50
65122;HTU21D;51701;45.036;38.924;2022-07-22T03:29:57;23.36;66.62
65122;HTU21D;51701;45.036;38.924;2022-07-22T03:32:22;0.00;62.43
65122;HTU21D;51701;45.036;38.924;2022-07-22T03:34:48;23.94;65.08
65122;HTU21D;51701;45.036;38.924;2022-07-22T03:37:14;24.42;60.67
65122;HTU21D;51701;45.036;38.924;2022-07-22T03:39:42;24.23;60.55
65122;HTU21D;51701;45.036;38.924;2022-07-22T03:42:08;24.31;63.44
65122;HTU21D;51701;45.036;38.924;2022-07-22T03:44:42;24.85;58.94
65122;HTU21D;51701;45.036;38.924;2022-07-22T03:47:08;24.58;59.40
65122;HTU21D;51701;45.036;38.924;2022-07-22T03:49:34;24.26;60.61
65122;HTU21D;51701;45.036;38.924;2022-07-22T03:52:00;24.30;62.29
65122;HTU21D;51701;45.036;38.924;2022-07-22T03:54:26;25.07;61.78
65122;HTU21D;51701;45.036;38.924;2022-07-22T03:56:52;0.00;58.22
65122;HTU21D;51701;45.036;38.924;2022-07-22T03:59:17;24.91;58.29
65122;HTU21D;51701;45.036;38.924;2022-07-22T04:01:43;24.99;60.21
65122;HTU21D;51701;45.036;38.924;2022-07-22T04:04:10;0.00;58.58
65122;HTU21D;51701;45.036;38.924;2022-07-22T04:06:40;25.76;55.82
65122;HTU21D;51701;45.036;38.924;2022-07-22T04:09:16;25.52;56.36
65122;HTU21D;51701;45.036;38.924;2022-07-22T04:11:42;25.69;58.30
65122;HTU21D;51701;45.036;38.924;2022-07-22T04:14:09;26.40;55.98
65122;HTU21D;51701;45.036;38.924;2022-07-22T04:16:35;26.22;54.39
65122;HTU21D;51701;45.036;38.924;2022-07-22T04:19:10;26.15;54.87
65122;HTU21D;51701;45.036;38.924;2022-07-22T04:21:53;26.66;56.42
65122;HTU21D;51701;45.036;38.924;2022-07-22T04:24:21;26.95;53.09
65122;HTU21D;51701;45.036;38.924;2022-07-22T04:26:47;0.00;54.78
65122;HTU21D;51701;45.036;38.924;2022-07-22T04:29:13;27.93;54.36
65122;HTU21D;51701;45.036;38.924;2022-07-22T04:31:40;28.88;53.22
65122;HTU21D;51701;45.036;38.924;2022-07-22T04:34:14;29.85;52.20
65122;HTU21D;51701;45.036;38.924;2022-07-22T04:36:40;30.62;51.54
65122;HTU21D;51701;45.036;38.924;2022-07-22T04:39:06;31.26;51.06
65122;HTU21D;51701;45.036;38.924;2022-07-22T04:41:32;31.81;50.47
65122;HTU21D;51701;45.036;38.924;2022-07-22T04:43:59;32.27;50.24
65122;HTU21D;51701;45.036;38.924;2022-07-22T04:46:27;32.68;49.04
65122;HTU21D;51701;45.036;38.924;2022-07-22T04:48:54;33.06;49.00
65122;HTU21D;51701;45.036;38.924;2022-07-22T04:51:20;33.44;48.72
65122;HTU21D;51701;45.036;38.924;2022-07-22T04:53:48;33.74;48.13
65122;HTU21D;51701;45.036;38.924;2022-07-22T04:56:18;34.06;47.90
65122;HTU21D;51701;45.036;38.924;2022-07-22T04:58:44;34.32;47.76
65122;HTU21D;51701;45.036;38.924;2022-07-22T05:01:09;34.57;47.12
65122;HTU21D;51701;45.036;38.924;2022-07-22T05:03:39;34.74;47.04
65122;HTU21D;51701;45.036;38.924;2022-07-22T05:06:05;35.04;46.70
65122;HTU21D;51701;45.036;38.924;2022-07-22T05:08:35;35.27;45.93
65122;HTU21D;51701;45.036;38.924;2022-07-22T05:11:01;35.44;45.93
65122;HTU21D;51701;45.036;38.924;2022-07-22T05:13:27;35.70;45.59
65122;HTU21D;51701;45.036;38.924;2022-07-22T05:15:53;35.89;45.43
65122;HTU21D;51701;45.036;38.924;2022-07-22T05:18:19;36.17;44.69
65122;HTU21D;51701;45.036;38.924;2022-07-22T05:20:45;36.29;44.58
65122;HTU21D;51701;45.036;38.924;2022-07-22T05:23:11;36.18;44.59
65122;HTU21D;51701;45.036;38.924;2022-07-22T05:25:37;36.19;44.75
65122;HTU21D;51701;45.036;38.924;2022-07-22T05:28:03;36.39;43.50
65122;HTU21D;51701;45.036;38.924;2022-07-22T05:30:35;36.62;43.11
65122;HTU21D;51701;45.036;38.924;2022-07-22T05:33:02;36.86;43.24
65122;HTU21D;51701;45.036;38.924;2022-07-22T05:35:54;36.88;36.66
65122;HTU21D;51701;45.036;38.924;2022-07-22T05:38:21;36.91;41.15
65122;HTU21D;51701;45.036;38.924;2022-07-22T05:40:46;37.16;41.35
65122;HTU21D;51701;45.036;38.924;2022-07-22T05:43:12;37.30;41.36
65122;HTU21D;51701;45.036;38.924;2022-07-22T05:45:38;37.28;41.57
65122;HTU21D;51701;45.036;38.924;2022-07-22T05:48:04;37.56;41.11
65122;HTU21D;51701;45.036;38.924;2022-07-22T05:50:31;36.49;37.47
65122;HTU21D;51701;45.036;38.924;2022-07-22T05:52:57;35.12;35.70
65122;HTU21D;51701;45.036;38.924;2022-07-22T05:55:23;34.17;40.10
65122;HTU21D;51701;45.036;38.924;2022-07-22T05:57:50;34.55;37.70
65122;HTU21D;51701;45.036;38.924;2022-07-22T06:00:16;34.05;38.27
65122;HTU21D;51701;45.036;38.924;2022-07-22T06:02:43;33.53;38.55
65122;HTU21D;51701;45.036;38.924;2022-07-22T06:05:14;33.63;40.63
65122;HTU21D;51701;45.036;38.924;2022-07-22T06:07:41;33.99;39.23
65122;HTU21D;51701;45.036;38.924;2022-07-22T06:10:09;33.55;38.78
65122;HTU21D;51701;45.036;38.924;2022-07-22T06:12:34;33.21;39.94
65122;HTU21D;51701;45.036;38.924;2022-07-22T06:15:00;33.88;38.57
65122;HTU21D;51701;45.036;38.924;2022-07-22T06:17:26;33.85;37.59
65122;HTU21D;51701;45.036;38.924;2022-07-22T06:19:53;33.29;39.46
65122;HTU21D;51701;45.036;38.924;2022-07-22T06:22:19;0.00;40.36
65122;HTU21D;51701;45.036;38.924;2022-07-22T06:24:45;34.29;38.88
65122;HTU21D;51701;45.036;38.924;2022-07-22T06:27:12;34.07;38.63
65122;HTU21D;51701;45.036;38.924;2022-07-22T06:29:38;33.70;39.47
65122;HTU21D;51701;45.036;38.924;2022-07-22T06:32:06;33.92;40.00
65122;HTU21D;51701;45.036;38.924;2022-07-22T06:34:32;34.37;37.43
65122;HTU21D;51701;45.036;38.924;2022-07-22T06:37:02;34.04;38.36
65122;HTU21D;51701;45.036;38.924;2022-07-22T06:39:28;33.83;37.88
65122;HTU21D;51701;45.036;38.924;2022-07-22T06:42:10;34.40;38.43
65122;HTU21D;51701;45.036;38.924;2022-07-22T06:44:48;34.63;37.81
65122;HTU21D;51701;45.036;38.924;2022-07-22T06:47:37;34.32;38.56
65122;HTU21D;51701;45.036;38.924;2022-07-22T06:50:08;34.52;38.93
65122;HTU21D;51701;45.036;38.924;2022-07-22T06:52:38;35.31;37.05
65122;HTU21D;51701;45.036;38.924;2022-07-22T06:55:05;34.81;36.29
65122;HTU21D;51701;45.036;38.924;2022-07-22T06:57:35;34.39;37.23
65122;HTU21D;51701;45.036;38.924;2022-07-22T07:00:01;34.95;38.03
65122;HTU21D;51701;45.036;38.924;2022-07-22T07:02:28;35.04;36.93
65122;HTU21D;51701;45.036;38.924;2022-07-22T07:04:54;34.74;37.12
65122;HTU21D;51701;45.036;38.924;2022-07-22T07:07:20;34.51;37.68
65122;HTU21D;51701;45.036;38.924;2022-07-22T07:09:57;0.00;35.71
65122;HTU21D;51701;45.036;38.924;2022-07-22T07:12:35;35.04;35.78
65122;HTU21D;51701;45.036;38.924;2022-07-22T07:15:04;34.69;35.63
65122;HTU21D;51701;45.036;38.924;2022-07-22T07:17:30;35.09;36.74
65122;HTU21D;51701;45.036;38.924;2022-07-22T07:19:56;35.43;34.88
65122;HTU21D;51701;45.036;38.924;2022-07-22T07:22:21;35.07;34.17
65122;HTU21D;51701;45.036;38.924;2022-07-22T07:24:48;34.68;35.72
65122;HTU21D;51701;45.036;38.924;2022-07-22T07:27:14;35.37;34.25
65122;HTU21D;51701;45.036;38.924;2022-07-22T07:29:40;35.30;34.40
65122;HTU21D;51701;45.036;38.924;2022-07-22T07:32:07;34.89;34.65
65122;HTU21D;51701;45.036;38.924;2022-07-22T07:34:33;34.76;35.77
65122;HTU21D;51701;45.036;38.924;2022-07-22T07:36:59;35.49;34.44
65122;HTU21D;51701;45.036;38.924;2022-07-22T07:39:25;35.01;33.15
65122;HTU21D;51701;45.036;38.924;2022-07-22T07:41:53;34.47;34.33
65122;HTU21D;51701;45.036;38.924;2022-07-22T07:44:19;34.79;34.95
65122;HTU21D;51701;45.036;38.924;2022-07-22T07:46:45;34.62;33.41
65122;HTU21D;51701;45.036;38.924;2022-07-22T07:49:11;34.23;34.39
65122;HTU21D;51701;45.036;38.924;2022-07-22T07:51:37;34.21;35.26
65122;HTU21D;51701;45.036;38.924;2022-07-22T07:54:02;35.54;33.99
65122;HTU21D;51701;45.036;38.924;2022-07-22T07:56:28;34.32;34.39
65122;HTU21D;51701;45.036;38.924;2022-07-22T07:58:54;33.89;34.90
65122;HTU21D;51701;45.036;38.924;2022-07-22T08:01:20;34.03;35.56
65122;HTU21D;51701;45.036;38.924;2022-07-22T08:03:46;34.60;34.41
65122;HTU21D;51701;45.036;38.924;2022-07-22T08:06:12;34.20;34.71
65122;HTU21D;51701;45.036;38.924;2022-07-22T08:08:37;34.51;35.24
65122;HTU21D;51701;45.036;38.924;2022-07-22T08:11:10;0.00;34.28
65122;HTU21D;51701;45.036;38.924;2022-07-22T08:14:08;34.08;35.42
65122;HTU21D;51701;45.036;38.924;2022-07-22T08:16:40;34.06;36.00
65122;HTU21D;51701;45.036;38.924;2022-07-22T08:19:06;0.00;34.73
65122;HTU21D;51701;45.036;38.924;2022-07-22T08:21:32;34.07;35.31
65122;HTU21D;51701;45.036;38.924;2022-07-22T08:24:09;33.55;36.36
65122;HTU21D;51701;45.036;38.924;2022-07-22T08:26:35;33.72;36.08
65122;HTU21D;51701;45.036;38.924;2022-07-22T08:29:01;33.73;36.10
65122;HTU21D;51701;45.036;38.924;2022-07-22T08:31:27;33.51;35.84
65122;HTU21D;51701;45.036;38.924;2022-07-22T08:33:53;33.66;36.39
65122;HTU21D;51701;45.036;38.924;2022-07-22T08:36:19;34.30;35.79
65122;HTU21D;51701;45.036;38.924;2022-07-22T08:38:44;33.63;35.40
65122;HTU21D;51701;45.036;38.924;2022-07-22T08:41:10;32.12;38.33
65122;HTU21D;51701;45.036;38.924;2022-07-22T08:43:36;0.00;40.23
65122;HTU21D;51701;45.036;38.924;2022-07-22T08:46:05;0.00;42.36
65122;HTU21D;51701;45.036;38.924;2022-07-22T08:48:53;29.68;43.39
65122;HTU21D;51701;45.036;38.924;2022-07-22T08:51:40;29.15;44.10
65122;HTU21D;51701;45.036;38.924;2022-07-22T08:54:32;0.00;44.84
65122;HTU21D;51701;45.036;38.924;2022-07-22T08:57:00;28.64;45.85
65122;HTU21D;51701;45.036;38.924;2022-07-22T08:59:26;0.00;45.73
65122;HTU21D;51701;45.036;38.924;2022-07-22T09:02:01;28.45;46.24
65122;HTU21D;51701;45.036;38.924;2022-07-22T09:04:29;28.44;46.35
65122;HTU21D;51701;45.036;38.924;2022-07-22T09:06:55;28.42;45.92
65122;HTU21D;51701;45.036;38.924;2022-07-22T09:09:28;28.37;46.15
65122;HTU21D;51701;45.036;38.924;2022-07-22T09:12:21;28.33;46.05
65122;HTU21D;51701;45.036;38.924;2022-07-22T09:15:07;28.25;46.53
65122;HTU21D;51701;45.036;38.924;2022-07-22T09:17:43;28.19;46.61
65122;HTU21D;51701;45.036;38.924;2022-07-22T09:20:47;0.00;45.35
65122;HTU21D;51701;45.036;38.924;2022-07-22T09:23:38;28.08;45.14
65122;HTU21D;51701;45.036;38.924;2022-07-22T09:26:04;0.00;45.66
65122;HTU21D;51701;45.036;38.924;2022-07-22T09:28:55;28.01;45.90
65122;HTU21D;51701;45.036;38.924;2022-07-22T09:31:41;28.06;46.07
65122;HTU21D;51701;45.036;38.924;2022-07-22T09:34:27;28.16;45.63
65122;HTU21D;51701;45.036;38.924;2022-07-22T09:36:57;28.23;46.00
65122;HTU21D;51701;45.036;38.924;2022-07-22T09:39:28;28.34;45.97
65122;HTU21D;51701;45.036;38.924;2022-07-22T09:41:58;28.56;46.55
65122;HTU21D;51701;45.036;38.924;2022-07-22T09:44:25;28.63;46.06
65122;HTU21D;51701;45.036;38.924;2022-07-22T09:46:53;28.54;46.06
65122;HTU21D;51701;45.036;38.924;2022-07-22T09:49:35;28.40;46.86
65122;HTU21D;51701;45.036;38.924;2022-07-22T09:52:20;28.29;46.75
65122;HTU21D;51701;45.036;38.924;2022-07-22T09:55:01;28.24;47.12
65122;HTU21D;51701;45.036;38.924;2022-07-22T09:57:27;28.04;48.01
65122;HTU21D;51701;45.036;38.924;2022-07-22T09:59:53;27.74;49.08
65122;HTU21D;51701;45.036;38.924;2022-07-22T10:02:40;27.49;50.34
65122;HTU21D;51701;45.036;38.924;2022-07-22T10:05:07;27.32;51.37
65122;HTU21D;51701;45.036;38.924;2022-07-22T10:07:34;27.20;52.07
65122;HTU21D;51701;45.036;38.924;2022-07-22T10:10:01;26.93;51.88
65122;HTU21D;51701;45.036;38.924;2022-07-22T10:12:27;26.80;52.01
65122;HTU21D;51701;45.036;38.924;2022-07-22T10:14:54;26.71;52.20
65122;HTU21D;51701;45.036;38.924;2022-07-22T10:17:19;26.69;52.84
65122;HTU21D;51701;45.036;38.924;2022-07-22T10:19:46;26.80;52.48
65122;HTU21D;51701;45.036;38.924;2022-07-22T10:25:00;26.90;52.27
65122;HTU21D;51701;45.036;38.924;2022-07-22T10:27:46;26.90;52.44
65122;HTU21D;51701;45.036;38.924;2022-07-22T10:30:12;26.87;52.42
65122;HTU21D;51701;45.036;38.924;2022-07-22T10:32:38;26.90;52.74
65122;HTU21D;51701;45.036;38.924;2022-07-22T10:40:10;26.84;52.60
65122;HTU21D;51701;45.036;38.924;2022-07-22T10:45:21;27.02;52.68
65122;HTU21D;51701;45.036;38.924;2022-07-22T10:47:51;26.97;52.93
65122;HTU21D;51701;45.036;38.924;2022-07-22T10:53:24;26.61;57.03
65122;HTU21D;51701;45.036;38.924;2022-07-22T10:55:57;24.97;63.32
65122;HTU21D;51701;45.036;38.924;2022-07-22T11:00:59;21.35;72.96
65122;HTU21D;51701;45.036;38.924;2022-07-22T11:03:25;20.41;74.91
65122;HTU21D;51701;45.036;38.924;2022-07-22T11:05:51;20.26;72.61
65122;HTU21D;51701;45.036;38.924;2022-07-22T11:08:17;20.45;74.41
65122;HTU21D;51701;45.036;38.924;2022-07-22T11:10:47;20.71;73.47
65122;HTU21D;51701;45.036;38.924;2022-07-22T11:13:36;20.93;71.03
65122;HTU21D;51701;45.036;38.924;2022-07-22T11:16:13;21.07;71.85
65122;HTU21D;51701;45.036;38.924;2022-07-22T11:18:52;20.89;72.90
65122;HTU21D;51701;45.036;38.924;2022-07-22T11:21:19;20.53;75.43
65122;HTU21D;51701;45.036;38.924;2022-07-22T11:23:45;20.24;79.41
65122;HTU21D;51701;45.036;38.924;2022-07-22T11:26:13;19.74;81.24
65122;HTU21D;51701;45.036;38.924;2022-07-22T11:28:40;19.37;82.24
65122;HTU21D;51701;45.036;38.924;2022-07-22T11:31:06;19.10;83.78
65122;HTU21D;51701;45.036;38.924;2022-07-22T11:33:32;18.71;87.20
65122;HTU21D;51701;45.036;38.924;2022-07-22T11:36:01;18.46;84.09
65122;HTU21D;51701;45.036;38.924;2022-07-22T11:38:47;18.26;81.93
65122;HTU21D;51701;45.036;38.924;2022-07-22T11:41:13;18.11;85.75
65122;HTU21D;51701;45.036;38.924;2022-07-22T11:43:43;18.08;89.12
65122;HTU21D;51701;45.036;38.924;2022-07-22T11:46:09;18.12;91.07
65122;HTU21D;51701;45.036;38.924;2022-07-22T11:48:35;18.21;92.00
65122;HTU21D;51701;45.036;38.924;2022-07-22T11:51:03;18.41;92.63
65122;HTU21D;51701;45.036;38.924;2022-07-22T11:53:29;18.64;93.10
65122;HTU21D;51701;45.036;38.924;2022-07-22T11:55:58;18.88;93.50
65122;HTU21D;51701;45.036;38.924;2022-07-22T12:01:06;19.50;93.90
65122;HTU21D;51701;45.036;38.924;2022-07-22T12:03:35;19.92;93.48
65122;HTU21D;51701;45.036;38.924;2022-07-22T12:06:02;20.32;92.82
65122;HTU21D;51701;45.036;38.924;2022-07-22T12:08:28;20.54;92.66
65122;HTU21D;51701;45.036;38.924;2022-07-22T12:10:55;20.68;92.98
65122;HTU21D;51701;45.036;38.924;2022-07-22T12:13:21;20.78;93.04
65122;HTU21D;51701;45.036;38.924;2022-07-22T12:15:47;0.00;93.24
65122;HTU21D;51701;45.036;38.924;2022-07-22T12:18:16;20.63;93.45
65122;HTU21D;51701;45.036;38.924;2022-07-22T12:20:43;20.48;94.02
65122;HTU21D;51701;45.036;38.924;2022-07-22T12:23:09;20.36;94.46
65122;HTU21D;51701;45.036;38.924;2022-07-22T12:25:48;20.27;94.97
65122;HTU21D;51701;45.036;38.924;2022-07-22T12:28:14;20.12;95.27
65122;HTU21D;51701;45.036;38.924;2022-07-22T12:30:40;20.00;95.63
65122;HTU21D;51701;45.036;38.924;2022-07-22T12:33:12;19.81;95.75
65122;HTU21D;51701;45.036;38.924;2022-07-22T12:35:38;19.48;96.55
65122;HTU21D;51701;45.036;38.924;2022-07-22T12:38:07;19.21;97.29
65122;HTU21D;51701;45.036;38.924;2022-07-22T12:40:34;18.96;97.75
65122;HTU21D;51701;45.036;38.924;2022-07-22T12:45:26;18.77;98.30
65122;HTU21D;51701;45.036;38.924;2022-07-22T12:50:30;18.69;98.51
65122;HTU21D;51701;45.036;38.924;2022-07-22T12:52:57;18.69;98.61
65122;HTU21D;51701;45.036;38.924;2022-07-22T12:55:23;18.78;98.58
65122;HTU21D;51701;45.036;38.924;2022-07-22T12:57:49;18.93;98.70
65122;HTU21D;51701;45.036;38.924;2022-07-22T13:00:22;19.09;98.83
65122;HTU21D;51701;45.036;38.924;2022-07-22T13:02:49;19.28;99.45
65122;HTU21D;51701;45.036;38.924;2022-07-22T13:05:14;19.45;98.52
65122;HTU21D;51701;45.036;38.924;2022-07-22T13:07:41;19.46;97.98
65122;HTU21D;51701;45.036;38.924;2022-07-22T13:10:07;19.24;99.19
65122;HTU21D;51701;45.036;38.924;2022-07-22T13:12:33;18.92;100.60
65122;HTU21D;51701;45.036;38.924;2022-07-22T13:14:59;18.65;101.30
65122;HTU21D;51701;45.036;38.924;2022-07-22T13:17:25;18.42;101.57
65122;HTU21D;51701;45.036;38.924;2022-07-22T13:19:50;18.25;101.75
65122;HTU21D;51701;45.036;38.924;2022-07-22T13:22:16;18.12;101.82
65122;HTU21D;51701;45.036;38.924;2022-07-22T13:24:42;18.04;101.76
65122;HTU21D;51701;45.036;38.924;2022-07-22T13:27:07;17.98;101.67
65122;HTU21D;51701;45.036;38.924;2022-07-22T13:29:33;17.98;101.33
65122;HTU21D;51701;45.036;38.924;2022-07-22T13:31:59;18.05;101.11
65122;HTU21D;51701;45.036;38.924;2022-07-22T13:34:24;18.11;101.04
65122;HTU21D;51701;45.036;38.924;2022-07-22T13:36:50;18.22;100.88
65122;HTU21D;51701;45.036;38.924;2022-07-22T13:39:16;18.28;100.66
65122;HTU21D;51701;45.036;38.924;2022-07-22T13:41:42;18.24;100.86
65122;HTU21D;51701;45.036;38.924;2022-07-22T13:44:07;18.23;101.32
65122;HTU21D;51701;45.036;38.924;2022-07-22T13:46:34;18.26;101.64
65122;HTU21D;51701;45.036;38.924;2022-07-22T13:48:59;18.29;101.92
65122;HTU21D;51701;45.036;38.924;2022-07-22T13:51:25;18.32;102.23
65122;HTU21D;51701;45.036;38.924;2022-07-22T13:53:51;18.32;102.40
65122;HTU21D;51701;45.036;38.924;2022-07-22T13:56:16;18.29;102.38
65122;HTU21D;51701;45.036;38.924;2022-07-22T13:58:42;18.27;102.18
65122;HTU21D;51701;45.036;38.924;2022-07-22T14:01:08;18.25;102.04
65122;HTU21D;51701;45.036;38.924;2022-07-22T14:03:35;18.19;101.98
65122;HTU21D;51701;45.036;38.924;2022-07-22T14:06:02;18.12;102.04
65122;HTU21D;51701;45.036;38.924;2022-07-22T14:08:27;18.02;102.18
65122;HTU21D;51701;45.036;38.924;2022-07-22T14:10:53;17.96;102.37
65122;HTU21D;51701;45.036;38.924;2022-07-22T14:13:19;17.93;102.48
65122;HTU21D;51701;45.036;38.924;2022-07-22T14:15:45;17.98;102.47
65122;HTU21D;51701;45.036;38.924;2022-07-22T14:18:11;18.05;102.57
65122;HTU21D;51701;45.036;38.924;2022-07-22T14:20:37;18.18;102.86
65122;HTU21D;51701;45.036;38.924;2022-07-22T14:23:03;18.29;102.94
65122;HTU21D;51701;45.036;38.924;2022-07-22T14:25:30;18.46;102.85
65122;HTU21D;51701;45.036;38.924;2022-07-22T14:27:56;18.65;102.68
65122;HTU21D;51701;45.036;38.924;2022-07-22T14:30:22;18.85;102.26
65122;HTU21D;51701;45.036;38.924;2022-07-22T14:32:48;19.00;101.93
65122;HTU21D;51701;45.036;38.924;2022-07-22T14:35:14;19.15;101.57
65122;HTU21D;51701;45.036;38.924;2022-07-22T14:37:39;19.28;101.36
65122;HTU21D;51701;45.036;38.924;2022-07-22T14:40:05;19.42;101.19
65122;HTU21D;51701;45.036;38.924;2022-07-22T14:42:31;19.56;101.05
65122;HTU21D;51701;45.036;38.924;2022-07-22T14:44:57;19.71;100.95
65122;HTU21D;51701;45.036;38.924;2022-07-22T14:47:22;19.83;100.77
65122;HTU21D;51701;45.036;38.924;2022-07-22T14:49:48;19.95;100.64
65122;HTU21D;51701;45.036;38.924;2022-07-22T14:52:14;20.02;100.55
65122;HTU21D;51701;45.036;38.924;2022-07-22T14:54:39;20.11;100.51
65122;HTU21D;51701;45.036;38.924;2022-07-22T14:57:05;20.18;100.57
65122;HTU21D;51701;45.036;38.924;2022-07-22T14:59:31;20.28;100.64
65122;HTU21D;51701;45.036;38.924;2022-07-22T15:01:56;20.36;100.51
65122;HTU21D;51701;45.036;38.924;2022-07-22T15:04:22;20.46;100.47
65122;HTU21D;51701;45.036;38.924;2022-07-22T15:06:48;20.56;100.98
65122;HTU21D;51701;45.036;38.924;2022-07-22T15:09:14;0.00;100.89
65122;HTU21D;51701;45.036;38.924;2022-07-22T15:11:39;20.83;100.50
65122;HTU21D;51701;45.036;38.924;2022-07-22T15:14:05;20.92;100.37
65122;HTU21D;51701;45.036;38.924;2022-07-22T15:16:31;20.95;100.84
65122;HTU21D;51701;45.036;38.924;2022-07-22T15:18:57;20.98;100.74
65122;HTU21D;51701;45.036;38.924;2022-07-22T15:21:22;21.00;100.74
65122;HTU21D;51701;45.036;38.924;2022-07-22T15:23:48;21.02;101.00
65122;HTU21D;51701;45.036;38.924;2022-07-22T15:26:14;21.00;101.42
65122;HTU21D;51701;45.036;38.924;2022-07-22T15:28:40;21.01;101.43
65122;HTU21D;51701;45.036;38.924;2022-07-22T15:31:05;21.03;101.33